createdAt,value
2022-10-17T00:02:27.389Z,8.30
2022-10-17T00:05:29.859Z,8.22
2022-10-17T00:08:32.255Z,8.14
2022-10-17T00:11:34.600Z,8.07
2022-10-17T00:14:37.548Z,8.12
2022-10-17T00:17:39.905Z,8.20
2022-10-17T00:20:42.239Z,8.05
2022-10-17T00:23:45.541Z,7.97
2022-10-17T00:26:47.842Z,7.98
2022-10-17T00:29:51.465Z,7.95
2022-10-17T00:32:53.912Z,7.98
2022-10-17T00:36:12.681Z,7.94
2022-10-17T00:39:15.080Z,8.00
2022-10-17T00:42:17.437Z,7.96
2022-10-17T00:45:25.983Z,7.97
2022-10-17T00:48:28.556Z,7.90
2022-10-17T00:51:37.364Z,7.82
2022-10-17T00:54:44.119Z,7.70
2022-10-17T00:57:47.328Z,7.79
2022-10-17T01:00:49.671Z,7.80
2022-10-17T01:03:52.099Z,7.70
2022-10-17T01:06:54.488Z,7.61
2022-10-17T01:09:57.158Z,7.64
2022-10-17T01:13:07.415Z,7.57
2022-10-17T01:16:34.779Z,7.60
2022-10-17T01:19:52.448Z,7.58
2022-10-17T01:23:26.154Z,7.53
2022-10-17T01:26:48.507Z,7.55
2022-10-17T01:30:22.301Z,7.49
2022-10-17T01:33:56.823Z,7.45
2022-10-17T01:37:16.457Z,7.41
2022-10-17T01:40:22.537Z,7.46
2022-10-17T01:43:43.124Z,7.41
2022-10-17T01:46:50.889Z,7.46
2022-10-17T01:49:56.028Z,7.41
2022-10-17T01:53:14.790Z,7.42
2022-10-17T01:56:19.731Z,7.44
2022-10-17T01:59:40.610Z,7.40
2022-10-17T02:02:45.907Z,7.40
2022-10-17T02:05:48.647Z,7.34
2022-10-17T02:08:51.470Z,7.34
2022-10-17T02:12:33.402Z,7.33
2022-10-17T02:15:53.596Z,7.41
2022-10-17T02:19:14.478Z,7.38
2022-10-17T02:22:31.825Z,7.35
2022-10-17T02:25:46.045Z,7.37
2022-10-17T02:28:52.067Z,7.48
2022-10-17T02:32:11.612Z,7.41
2022-10-17T02:35:15.799Z,7.31
2022-10-17T02:38:19.093Z,7.23
2022-10-17T02:41:24.439Z,7.28
2022-10-17T02:44:30.721Z,7.29
2022-10-17T02:47:56.076Z,7.25
2022-10-17T02:51:17.205Z,7.35
2022-10-17T02:54:45.823Z,7.31
2022-10-17T02:57:56.018Z,7.30
2022-10-17T03:00:59.440Z,7.31
2022-10-17T03:04:15.246Z,7.36
2022-10-17T03:07:18.380Z,7.32
2022-10-17T03:10:21.999Z,7.20
2022-10-17T03:13:24.427Z,7.18
2022-10-17T03:16:26.909Z,7.12
2022-10-17T03:19:29.656Z,7.09
2022-10-17T03:22:32.837Z,7.05
2022-10-17T03:25:37.226Z,7.02
2022-10-17T03:28:40.508Z,7.00
2022-10-17T03:31:43.082Z,6.99
2022-10-17T03:34:46.799Z,6.98
2022-10-17T03:37:49.697Z,7.02
2022-10-17T03:40:56.588Z,6.94
2022-10-17T03:43:59.023Z,6.91
2022-10-17T03:47:03.084Z,6.87
2022-10-17T03:50:06.616Z,6.87
2022-10-17T03:53:12.126Z,6.92
2022-10-17T03:56:17.650Z,6.89
2022-10-17T03:59:24.610Z,6.86
2022-10-17T04:02:35.931Z,6.83
2022-10-17T04:05:38.274Z,6.82
2022-10-17T04:08:42.576Z,6.75
2022-10-17T04:11:48.901Z,6.74
2022-10-17T04:14:52.009Z,6.65
2022-10-17T04:17:56.376Z,6.63
2022-10-17T04:21:01.589Z,6.57
2022-10-17T04:24:04.595Z,6.53
2022-10-17T04:27:18.783Z,6.54
2022-10-17T04:30:22.765Z,6.59
2022-10-17T04:33:25.809Z,6.67
2022-10-17T04:36:28.226Z,6.60
2022-10-17T04:39:30.731Z,6.54
2022-10-17T04:42:33.832Z,6.53
2022-10-17T04:45:36.578Z,6.50
2022-10-17T04:48:41.287Z,6.43
2022-10-17T04:51:43.833Z,6.39
2022-10-17T04:55:07.303Z,6.49
2022-10-17T04:58:09.866Z,6.48
2022-10-17T05:01:18.837Z,6.53
2022-10-17T05:04:26.969Z,6.52
2022-10-17T05:07:29.426Z,6.49
2022-10-17T05:10:46.988Z,6.50
2022-10-17T05:13:54.683Z,6.50
2022-10-17T05:16:57.691Z,6.46
2022-10-17T05:20:00.918Z,6.51
2022-10-17T05:23:05.471Z,6.57
2022-10-17T05:26:13.480Z,6.56
2022-10-17T05:29:16.079Z,6.60
2022-10-17T05:32:23.307Z,6.66
2022-10-17T05:35:25.980Z,6.80
2022-10-17T05:38:29.361Z,6.82
2022-10-17T05:41:32.864Z,6.88
2022-10-17T05:44:35.368Z,7.03
2022-10-17T05:47:38.418Z,7.03
2022-10-17T05:50:41.285Z,7.06
2022-10-17T05:53:49.222Z,7.27
2022-10-17T05:56:58.234Z,7.37
2022-10-17T06:00:05.522Z,7.41
2022-10-17T06:03:16.647Z,7.52
2022-10-17T06:06:19.633Z,7.57
2022-10-17T06:09:24.024Z,7.67
2022-10-17T06:12:29.407Z,7.77
2022-10-17T06:15:32.136Z,7.85
2022-10-17T06:18:39.251Z,8.03
2022-10-17T06:21:41.806Z,8.26
2022-10-17T06:24:55.370Z,8.35
2022-10-17T06:28:00.244Z,8.39
2022-10-17T06:31:12.765Z,8.42
2022-10-17T06:34:19.036Z,8.46
2022-10-17T06:37:22.166Z,8.57
2022-10-17T06:40:24.876Z,8.66
2022-10-17T06:43:28.157Z,8.80
2022-10-17T06:47:02.923Z,9.09
2022-10-17T06:50:05.864Z,9.77
2022-10-17T06:53:34.596Z,9.67
2022-10-17T06:57:01.899Z,10.89
2022-10-17T07:00:23.576Z,10.85
2022-10-17T07:03:30.350Z,11.33
2022-10-17T07:06:33.237Z,11.16
2022-10-17T07:09:42.368Z,11.07
2022-10-17T07:12:45.851Z,10.98
2022-10-17T07:15:48.606Z,11.70
2022-10-17T07:18:54.325Z,11.84
2022-10-17T07:21:57.106Z,12.13
2022-10-17T07:25:00.111Z,12.21
2022-10-17T07:28:07.025Z,12.36
2022-10-17T07:31:12.892Z,12.67
2022-10-17T07:34:15.630Z,12.43
2022-10-17T07:37:19.207Z,12.46
2022-10-17T07:40:27.912Z,12.59
2022-10-17T07:43:31.194Z,12.95
2022-10-17T07:46:35.349Z,12.92
2022-10-17T07:49:42.536Z,12.89
2022-10-17T07:52:45.124Z,12.89
2022-10-17T07:55:49.591Z,12.92
2022-10-17T07:58:53.239Z,12.93
2022-10-17T08:01:56.719Z,13.04
2022-10-17T08:04:59.214Z,13.13
2022-10-17T08:08:01.625Z,13.15
2022-10-17T08:11:07.422Z,12.64
2022-10-17T08:14:14.118Z,12.56
2022-10-17T08:17:16.580Z,12.88
2022-10-17T08:20:22.162Z,12.59
2022-10-17T08:23:24.573Z,12.87
2022-10-17T08:26:26.932Z,13.07
2022-10-17T08:29:29.841Z,12.89
2022-10-17T08:32:32.708Z,13.29
2022-10-17T08:35:35.920Z,13.41
2022-10-17T08:38:43.103Z,13.28
2022-10-17T08:42:14.330Z,13.67
2022-10-17T08:45:51.999Z,13.88
2022-10-17T08:48:54.591Z,14.13
2022-10-17T08:52:07.078Z,14.39
2022-10-17T08:55:33.909Z,14.61
2022-10-17T08:58:37.368Z,14.64
2022-10-17T09:02:02.903Z,14.68
2022-10-17T09:05:08.397Z,14.94
2022-10-17T09:08:35.335Z,14.99
2022-10-17T09:11:52.503Z,15.29
2022-10-17T09:15:49.121Z,15.31
2022-10-17T09:19:33.813Z,15.39
2022-10-17T09:26:02.486Z,15.40
2022-10-17T09:29:15.594Z,15.73
2022-10-17T09:32:24.037Z,15.67
2022-10-17T09:35:29.373Z,15.70
2022-10-17T09:38:40.977Z,15.72
2022-10-17T09:41:49.763Z,15.82
2022-10-17T09:45:05.190Z,15.71
2022-10-17T09:48:26.215Z,15.89
2022-10-17T09:51:31.147Z,16.08
2022-10-17T09:54:51.758Z,16.03
2022-10-17T09:58:03.787Z,16.13
2022-10-17T10:01:42.046Z,16.17
2022-10-17T10:05:06.585Z,16.15
2022-10-17T10:08:19.311Z,16.19
2022-10-17T10:11:44.231Z,16.45
2022-10-17T10:14:47.354Z,16.47
2022-10-17T10:17:52.815Z,16.58
2022-10-17T10:21:09.801Z,16.67
2022-10-17T10:24:13.702Z,16.87
2022-10-17T10:27:18.141Z,16.99
2022-10-17T10:30:28.087Z,17.07
2022-10-17T10:33:33.766Z,17.21
2022-10-17T10:37:16.981Z,17.38
2022-10-17T10:40:23.607Z,17.47
2022-10-17T10:43:47.863Z,17.56
2022-10-17T10:47:07.118Z,17.60
2022-10-17T10:50:23.774Z,17.81
2022-10-17T10:53:35.105Z,17.97
2022-10-17T10:56:43.851Z,18.09
2022-10-17T10:59:56.720Z,18.14
2022-10-17T11:06:45.392Z,17.81
2022-10-17T11:09:58.620Z,18.09
2022-10-17T11:13:11.674Z,17.81
2022-10-17T11:16:29.582Z,18.14
2022-10-17T11:19:38.083Z,18.28
2022-10-17T11:22:45.439Z,17.99
2022-10-17T11:25:51.762Z,18.26
2022-10-17T11:28:56.130Z,18.05
2022-10-17T11:32:05.771Z,18.02
2022-10-17T11:35:32.446Z,18.18
2022-10-17T11:38:53.449Z,18.25
2022-10-17T11:42:06.949Z,18.15
2022-10-17T11:45:15.798Z,18.18
2022-10-17T11:48:50.044Z,18.09
2022-10-17T11:52:05.303Z,18.31
2022-10-17T11:55:27.529Z,18.68
2022-10-17T11:58:42.444Z,18.63
2022-10-17T12:01:52.663Z,18.65
2022-10-17T12:05:05.642Z,19.26
2022-10-17T12:08:47.231Z,19.36
2022-10-17T12:11:59.012Z,19.29
2022-10-17T12:15:13.832Z,19.44
2022-10-17T12:18:17.679Z,19.66
2022-10-17T12:21:20.340Z,19.44
2022-10-17T12:24:31.949Z,19.43
2022-10-17T12:27:43.444Z,19.54
2022-10-17T12:31:15.627Z,19.39
2022-10-17T12:34:22.273Z,19.38
2022-10-17T12:37:43.120Z,19.70
2022-10-17T12:40:49.030Z,19.48
2022-10-17T12:43:54.017Z,19.72
2022-10-17T12:47:07.969Z,19.76
2022-10-17T12:50:49.298Z,19.58
2022-10-17T12:54:11.966Z,19.52
2022-10-17T12:57:44.377Z,19.71
2022-10-17T13:01:18.883Z,19.66
2022-10-17T13:04:18.419Z,19.38
2022-10-17T13:07:22.362Z,19.52
2022-10-17T13:10:28.470Z,19.58
2022-10-17T13:13:33.891Z,19.36
2022-10-17T13:16:51.356Z,19.33
2022-10-17T13:19:55.487Z,19.40
2022-10-17T13:22:58.639Z,19.10
2022-10-17T13:26:10.210Z,19.11
2022-10-17T13:29:16.349Z,18.99
2022-10-17T13:32:18.818Z,18.94
2022-10-17T13:36:01.871Z,18.99
2022-10-17T13:38:54.990Z,18.84
2022-10-17T13:41:58.088Z,18.75
2022-10-17T13:45:00.487Z,18.64
2022-10-17T13:48:06.847Z,18.57
2022-10-17T13:51:11.187Z,18.56
2022-10-17T13:54:34.925Z,18.46
2022-10-17T13:57:37.697Z,18.53
2022-10-17T14:00:40.566Z,18.56
2022-10-17T14:03:48.565Z,18.38
2022-10-17T14:06:52.535Z,18.21
2022-10-17T14:09:55.409Z,18.22
2022-10-17T14:12:58.450Z,18.34
2022-10-17T14:16:03.486Z,18.10
2022-10-17T14:19:22.964Z,18.00
2022-10-17T14:22:28.134Z,18.07
2022-10-17T14:25:31.806Z,17.96
2022-10-17T14:28:34.849Z,17.82
2022-10-17T14:31:37.314Z,17.89
2022-10-17T14:34:40.852Z,17.84
2022-10-17T14:37:48.825Z,17.71
2022-10-17T14:41:00.942Z,17.76
2022-10-17T14:44:33.068Z,17.70
2022-10-17T14:47:43.692Z,17.51
2022-10-17T14:51:14.686Z,17.27
2022-10-17T14:54:23.097Z,17.20
2022-10-17T14:57:41.688Z,17.27
2022-10-17T15:00:44.184Z,17.20
2022-10-17T15:03:46.744Z,17.12
2022-10-17T15:06:54.822Z,17.04
2022-10-17T15:09:57.385Z,16.93
2022-10-17T15:13:16.413Z,16.78
2022-10-17T15:16:30.751Z,16.63
2022-10-17T15:19:33.451Z,16.57
2022-10-17T15:22:36.702Z,16.45
2022-10-17T15:25:39.294Z,16.29
2022-10-17T15:28:42.014Z,16.16
2022-10-17T15:31:44.815Z,16.03
2022-10-17T15:34:47.355Z,15.89
2022-10-17T15:37:50.375Z,15.78
2022-10-17T15:40:52.911Z,15.59
2022-10-17T15:43:55.683Z,15.46
2022-10-17T15:46:58.082Z,15.35
2022-10-17T15:50:00.867Z,15.28
2022-10-17T15:53:05.727Z,15.17
2022-10-17T15:56:15.059Z,15.03
2022-10-17T15:59:21.755Z,14.89
2022-10-17T16:02:24.443Z,14.80
2022-10-17T16:05:27.107Z,14.69
2022-10-17T16:08:29.486Z,14.56
2022-10-17T16:11:35.411Z,14.61
2022-10-17T16:14:37.824Z,14.63
2022-10-17T16:17:40.530Z,14.57
2022-10-17T16:20:44.104Z,14.34
2022-10-17T16:23:46.663Z,14.23
2022-10-17T16:26:49.367Z,14.07
2022-10-17T16:29:52.095Z,13.89
2022-10-17T16:32:55.436Z,13.78
2022-10-17T16:35:58.079Z,13.71
2022-10-17T16:39:00.891Z,13.51
2022-10-17T16:42:03.342Z,13.30
2022-10-17T16:45:06.263Z,13.19
2022-10-17T16:48:09.333Z,12.98
2022-10-17T16:51:13.337Z,12.89
2022-10-17T16:54:16.275Z,12.72
2022-10-17T16:57:19.285Z,12.62
2022-10-17T17:00:21.961Z,12.50
2022-10-17T17:03:24.407Z,12.36
2022-10-17T17:06:30.605Z,12.31
2022-10-17T17:09:33.320Z,12.22
2022-10-17T17:12:36.347Z,12.20
2022-10-17T17:15:38.820Z,12.13
2022-10-17T17:18:41.762Z,11.95
2022-10-17T17:21:51.006Z,11.91
2022-10-17T17:24:53.472Z,11.99
2022-10-17T17:27:55.776Z,12.00
2022-10-17T17:30:58.343Z,11.84
2022-10-17T17:34:01.450Z,11.89
2022-10-17T17:37:03.811Z,11.80
2022-10-17T17:40:06.766Z,11.84
2022-10-17T17:43:09.119Z,11.79
2022-10-17T17:46:12.024Z,11.70
2022-10-17T17:49:14.437Z,11.75
2022-10-17T17:52:16.874Z,11.71
2022-10-17T17:55:19.440Z,11.66
2022-10-17T17:58:21.796Z,11.54
2022-10-17T18:01:26.869Z,11.41
2022-10-17T18:04:29.481Z,11.38
2022-10-17T18:07:31.858Z,11.24
2022-10-17T18:10:35.478Z,11.20
2022-10-17T18:13:38.238Z,11.20
2022-10-17T18:16:42.217Z,11.21
2022-10-17T18:19:44.603Z,11.15
2022-10-17T18:22:47.103Z,11.03
2022-10-17T18:25:58.470Z,11.00
2022-10-17T18:29:01.162Z,10.92
2022-10-17T18:32:03.557Z,10.84
2022-10-17T18:35:06.335Z,10.86
2022-10-17T18:38:08.693Z,10.76
2022-10-17T18:41:18.046Z,10.78
2022-10-17T18:44:20.518Z,10.67
2022-10-17T18:47:22.994Z,10.68
2022-10-17T18:50:25.924Z,10.61
2022-10-17T18:53:28.909Z,10.58
2022-10-17T18:56:31.929Z,10.45
2022-10-17T18:59:34.474Z,10.42
2022-10-17T19:02:38.047Z,10.47
2022-10-17T19:05:41.455Z,10.38
2022-10-17T19:08:44.631Z,10.48
2022-10-17T19:11:47.286Z,10.50
2022-10-17T19:14:50.854Z,10.59
2022-10-17T19:17:53.207Z,10.40
2022-10-17T19:20:55.810Z,10.29
2022-10-17T19:24:03.824Z,10.39
2022-10-17T19:27:06.883Z,10.26
2022-10-17T19:30:10.731Z,10.24
2022-10-17T19:33:13.484Z,10.30
2022-10-17T19:36:16.474Z,10.31
2022-10-17T19:39:20.979Z,10.25
2022-10-17T19:42:24.118Z,10.31
2022-10-17T19:45:26.430Z,10.23
2022-10-17T19:48:32.005Z,10.16
2022-10-17T19:51:34.750Z,10.13
2022-10-17T19:54:38.913Z,10.20
2022-10-17T19:57:41.383Z,10.19
2022-10-17T20:00:50.993Z,10.05
2022-10-17T20:03:54.348Z,9.99
2022-10-17T20:06:59.809Z,10.00
2022-10-17T20:10:02.329Z,10.02
2022-10-17T20:13:04.931Z,9.99
2022-10-17T20:16:09.064Z,10.00
2022-10-17T20:19:13.568Z,9.99
2022-10-17T20:22:16.055Z,9.94
2022-10-17T20:25:18.590Z,9.83
2022-10-17T20:28:27.846Z,9.70
2022-10-17T20:31:30.778Z,9.66
2022-10-17T20:34:35.642Z,9.76
2022-10-17T20:37:44.283Z,9.71
2022-10-17T20:40:48.132Z,9.67
2022-10-17T20:43:55.402Z,9.58
2022-10-17T20:47:02.279Z,9.74
2022-10-17T20:50:07.602Z,9.72
2022-10-17T20:56:38.191Z,9.54
2022-10-17T20:59:43.229Z,9.48
2022-10-17T21:02:49.420Z,9.41
2022-10-17T21:05:54.219Z,9.39
2022-10-17T21:09:01.483Z,9.38
2022-10-17T21:12:07.643Z,9.45
2022-10-17T21:15:10.805Z,9.40
2022-10-17T21:18:13.141Z,9.49
2022-10-17T21:21:19.894Z,9.52
2022-10-17T21:24:22.518Z,9.47
2022-10-17T21:27:30.823Z,9.51
2022-10-17T21:30:33.215Z,9.51
2022-10-17T21:33:35.540Z,9.47
2022-10-17T21:36:38.561Z,9.41
2022-10-17T21:39:41.074Z,9.43
2022-10-17T21:42:43.403Z,9.33
2022-10-17T21:45:45.849Z,9.37
2022-10-17T21:48:49.349Z,9.34
2022-10-17T21:51:52.896Z,9.21
2022-10-17T21:54:55.190Z,9.09
2022-10-17T21:57:57.567Z,9.07
2022-10-17T22:01:21.710Z,9.05
2022-10-17T22:04:24.135Z,9.07
2022-10-17T22:07:26.548Z,8.99
2022-10-17T22:10:28.983Z,8.96
2022-10-17T22:13:31.361Z,8.88
2022-10-17T22:16:34.929Z,8.85
2022-10-17T22:19:37.305Z,8.90
2022-10-17T22:22:39.619Z,8.79
2022-10-17T22:25:41.942Z,8.74
2022-10-17T22:28:44.374Z,8.66
2022-10-17T22:31:46.966Z,8.59
2022-10-17T22:34:49.360Z,8.51
2022-10-17T22:37:51.654Z,8.48
2022-10-17T22:40:56.686Z,8.42
2022-10-17T22:43:59.186Z,8.34
2022-10-17T22:47:01.541Z,8.24
2022-10-17T22:50:04.071Z,8.14
2022-10-17T22:53:06.464Z,8.13
2022-10-17T22:56:17.838Z,8.15
2022-10-17T22:59:20.375Z,8.14
2022-10-17T23:02:22.907Z,8.09
2022-10-17T23:05:25.260Z,8.02
2022-10-17T23:08:28.299Z,7.99
2022-10-17T23:11:31.268Z,8.00
2022-10-17T23:14:34.280Z,8.07
2022-10-17T23:17:36.703Z,8.07
2022-10-17T23:20:39.692Z,8.16
2022-10-17T23:23:42.049Z,8.15
2022-10-17T23:26:44.435Z,8.07
2022-10-17T23:29:46.770Z,8.05
2022-10-17T23:32:49.230Z,8.13
2022-10-17T23:35:51.599Z,8.14
2022-10-17T23:38:56.464Z,7.99
2022-10-17T23:42:00.908Z,8.03
2022-10-17T23:45:03.987Z,7.90
2022-10-17T23:48:07.207Z,7.93
2022-10-17T23:51:10.729Z,7.94
2022-10-17T23:54:13.067Z,8.00
2022-10-17T23:57:15.568Z,8.05
